sensor_id;sensor_type;location;lat;lon;timestamp;P1;durP1;ratioP1;P2;durP2;ratioP2
35364;SDS011;21464;48.112;11.530;2023-06-22T00:00:58;6.10;;;4.10;;
35364;SDS011;21464;48.112;11.530;2023-06-22T00:03:24;6.32;;;4.13;;
35364;SDS011;21464;48.112;11.530;2023-06-22T00:05:51;5.35;;;3.92;;
35364;SDS011;21464;48.112;11.530;2023-06-22T00:08:18;7.38;;;4.45;;
35364;SDS011;21464;48.112;11.530;2023-06-22T00:10:45;7.38;;;4.25;;
35364;SDS011;21464;48.112;11.530;2023-06-22T00:13:12;7.60;;;4.30;;
35364;SDS011;21464;48.112;11.530;2023-06-22T00:15:39;7.45;;;4.10;;
35364;SDS011;21464;48.112;11.530;2023-06-22T00:18:06;6.38;;;3.95;;
35364;SDS011;21464;48.112;11.530;2023-06-22T00:20:32;7.30;;;4.32;;
35364;SDS011;21464;48.112;11.530;2023-06-22T00:23:03;6.82;;;4.28;;
35364;SDS011;21464;48.112;11.530;2023-06-22T00:25:37;6.78;;;4.35;;
35364;SDS011;21464;48.112;11.530;2023-06-22T00:28:06;7.50;;;4.65;;
35364;SDS011;21464;48.112;11.530;2023-06-22T00:30:34;8.63;;;4.45;;
35364;SDS011;21464;48.112;11.530;2023-06-22T00:33:00;6.80;;;4.10;;
35364;SDS011;21464;48.112;11.530;2023-06-22T00:35:27;4.57;;;4.13;;
35364;SDS011;21464;48.112;11.530;2023-06-22T00:37:55;7.03;;;4.50;;
35364;SDS011;21464;48.112;11.530;2023-06-22T00:40:29;5.35;;;4.20;;
35364;SDS011;21464;48.112;11.530;2023-06-22T00:42:57;7.15;;;4.03;;
35364;SDS011;21464;48.112;11.530;2023-06-22T00:45:24;9.07;;;4.28;;
35364;SDS011;21464;48.112;11.530;2023-06-22T00:47:51;6.32;;;4.25;;
35364;SDS011;21464;48.112;11.530;2023-06-22T00:50:20;6.75;;;4.07;;
35364;SDS011;21464;48.112;11.530;2023-06-22T00:52:55;6.88;;;4.13;;
35364;SDS011;21464;48.112;11.530;2023-06-22T00:55:22;7.25;;;4.57;;
35364;SDS011;21464;48.112;11.530;2023-06-22T00:57:49;6.93;;;4.20;;
35364;SDS011;21464;48.112;11.530;2023-06-22T01:00:15;5.40;;;3.90;;
35364;SDS011;21464;48.112;11.530;2023-06-22T01:02:43;7.18;;;4.28;;
35364;SDS011;21464;48.112;11.530;2023-06-22T01:05:13;6.50;;;4.47;;
35364;SDS011;21464;48.112;11.530;2023-06-22T01:07:54;6.50;;;4.65;;
35364;SDS011;21464;48.112;11.530;2023-06-22T01:10:37;8.55;;;4.30;;
35364;SDS011;21464;48.112;11.530;2023-06-22T01:13:11;9.48;;;4.32;;
35364;SDS011;21464;48.112;11.530;2023-06-22T01:15:51;6.15;;;4.53;;
35364;SDS011;21464;48.112;11.530;2023-06-22T01:18:22;6.78;;;4.50;;
35364;SDS011;21464;48.112;11.530;2023-06-22T01:20:52;5.55;;;4.22;;
35364;SDS011;21464;48.112;11.530;2023-06-22T01:26:28;5.68;;;4.32;;
35364;SDS011;21464;48.112;11.530;2023-06-22T01:28:57;6.82;;;4.25;;
35364;SDS011;21464;48.112;11.530;2023-06-22T01:31:27;6.57;;;4.53;;
35364;SDS011;21464;48.112;11.530;2023-06-22T01:34:05;7.78;;;4.93;;
35364;SDS011;21464;48.112;11.530;2023-06-22T01:36:33;5.80;;;4.05;;
35364;SDS011;21464;48.112;11.530;2023-06-22T01:38:59;6.70;;;4.35;;
35364;SDS011;21464;48.112;11.530;2023-06-22T01:41:27;5.82;;;4.30;;
35364;SDS011;21464;48.112;11.530;2023-06-22T01:43:55;7.28;;;4.93;;
35364;SDS011;21464;48.112;11.530;2023-06-22T01:46:21;6.50;;;4.68;;
35364;SDS011;21464;48.112;11.530;2023-06-22T01:48:48;8.10;;;4.93;;
35364;SDS011;21464;48.112;11.530;2023-06-22T01:51:15;6.35;;;4.43;;
35364;SDS011;21464;48.112;11.530;2023-06-22T01:53:42;9.32;;;4.53;;
35364;SDS011;21464;48.112;11.530;2023-06-22T01:56:08;7.38;;;4.53;;
35364;SDS011;21464;48.112;11.530;2023-06-22T01:58:35;6.68;;;4.32;;
35364;SDS011;21464;48.112;11.530;2023-06-22T02:01:10;8.80;;;4.85;;
35364;SDS011;21464;48.112;11.530;2023-06-22T02:03:41;5.60;;;4.82;;
35364;SDS011;21464;48.112;11.530;2023-06-22T02:06:16;5.65;;;4.53;;
35364;SDS011;21464;48.112;11.530;2023-06-22T02:08:55;6.18;;;4.72;;
35364;SDS011;21464;48.112;11.530;2023-06-22T02:11:24;8.27;;;5.10;;
35364;SDS011;21464;48.112;11.530;2023-06-22T02:13:53;9.07;;;4.65;;
35364;SDS011;21464;48.112;11.530;2023-06-22T02:16:19;7.15;;;4.78;;
35364;SDS011;21464;48.112;11.530;2023-06-22T02:18:49;7.50;;;4.85;;
35364;SDS011;21464;48.112;11.530;2023-06-22T02:21:19;6.70;;;4.50;;
35364;SDS011;21464;48.112;11.530;2023-06-22T02:23:46;5.78;;;4.72;;
35364;SDS011;21464;48.112;11.530;2023-06-22T02:26:13;7.55;;;5.20;;
35364;SDS011;21464;48.112;11.530;2023-06-22T02:28:39;8.77;;;5.07;;
35364;SDS011;21464;48.112;11.530;2023-06-22T02:31:05;6.68;;;5.03;;
35364;SDS011;21464;48.112;11.530;2023-06-22T02:33:31;7.40;;;5.30;;
35364;SDS011;21464;48.112;11.530;2023-06-22T02:35:58;6.28;;;4.93;;
35364;SDS011;21464;48.112;11.530;2023-06-22T02:38:24;7.95;;;5.28;;
35364;SDS011;21464;48.112;11.530;2023-06-22T02:40:52;8.68;;;5.53;;
35364;SDS011;21464;48.112;11.530;2023-06-22T02:43:18;9.88;;;5.75;;
35364;SDS011;21464;48.112;11.530;2023-06-22T02:45:44;7.32;;;5.70;;
35364;SDS011;21464;48.112;11.530;2023-06-22T02:48:11;8.80;;;5.88;;
35364;SDS011;21464;48.112;11.530;2023-06-22T02:50:37;8.48;;;6.25;;
35364;SDS011;21464;48.112;11.530;2023-06-22T02:53:05;6.53;;;5.68;;
35364;SDS011;21464;48.112;11.530;2023-06-22T02:55:35;8.27;;;6.25;;
35364;SDS011;21464;48.112;11.530;2023-06-22T02:58:01;8.63;;;6.05;;
35364;SDS011;21464;48.112;11.530;2023-06-22T03:00:33;7.80;;;5.85;;
35364;SDS011;21464;48.112;11.530;2023-06-22T03:02:59;8.48;;;5.88;;
35364;SDS011;21464;48.112;11.530;2023-06-22T03:05:25;9.50;;;6.00;;
35364;SDS011;21464;48.112;11.530;2023-06-22T03:07:53;8.05;;;5.55;;
35364;SDS011;21464;48.112;11.530;2023-06-22T03:10:19;9.00;;;5.75;;
35364;SDS011;21464;48.112;11.530;2023-06-22T03:12:46;7.85;;;5.88;;
35364;SDS011;21464;48.112;11.530;2023-06-22T03:15:12;5.97;;;4.97;;
35364;SDS011;21464;48.112;11.530;2023-06-22T03:17:39;6.82;;;5.28;;
35364;SDS011;21464;48.112;11.530;2023-06-22T03:20:08;6.75;;;4.72;;
35364;SDS011;21464;48.112;11.530;2023-06-22T03:22:37;8.93;;;5.50;;
35364;SDS011;21464;48.112;11.530;2023-06-22T03:25:07;8.23;;;5.70;;
35364;SDS011;21464;48.112;11.530;2023-06-22T03:27:41;8.30;;;5.32;;
35364;SDS011;21464;48.112;11.530;2023-06-22T03:30:08;6.30;;;5.07;;
35364;SDS011;21464;48.112;11.530;2023-06-22T03:32:36;11.02;;;5.75;;
35364;SDS011;21464;48.112;11.530;2023-06-22T03:35:02;8.65;;;5.63;;
35364;SDS011;21464;48.112;11.530;2023-06-22T03:37:30;9.80;;;5.85;;
35364;SDS011;21464;48.112;11.530;2023-06-22T03:39:56;10.32;;;6.45;;
35364;SDS011;21464;48.112;11.530;2023-06-22T03:42:23;11.27;;;6.43;;
35364;SDS011;21464;48.112;11.530;2023-06-22T03:44:49;7.78;;;5.90;;
35364;SDS011;21464;48.112;11.530;2023-06-22T03:47:15;10.00;;;6.53;;
35364;SDS011;21464;48.112;11.530;2023-06-22T03:49:41;8.63;;;5.28;;
35364;SDS011;21464;48.112;11.530;2023-06-22T03:52:07;10.80;;;6.18;;
35364;SDS011;21464;48.112;11.530;2023-06-22T03:54:34;8.95;;;6.78;;
35364;SDS011;21464;48.112;11.530;2023-06-22T03:57:00;7.18;;;5.75;;
35364;SDS011;21464;48.112;11.530;2023-06-22T03:59:26;7.57;;;6.13;;
35364;SDS011;21464;48.112;11.530;2023-06-22T04:01:52;8.93;;;6.70;;
35364;SDS011;21464;48.112;11.530;2023-06-22T04:04:19;12.65;;;11.02;;
35364;SDS011;21464;48.112;11.530;2023-06-22T04:06:45;11.85;;;9.35;;
35364;SDS011;21464;48.112;11.530;2023-06-22T04:09:11;11.23;;;9.38;;
35364;SDS011;21464;48.112;11.530;2023-06-22T04:11:38;9.52;;;7.63;;
35364;SDS011;21464;48.112;11.530;2023-06-22T04:14:04;10.23;;;7.43;;
35364;SDS011;21464;48.112;11.530;2023-06-22T04:16:30;11.95;;;9.65;;
35364;SDS011;21464;48.112;11.530;2023-06-22T04:18:56;13.52;;;11.35;;
35364;SDS011;21464;48.112;11.530;2023-06-22T04:21:22;12.35;;;9.93;;
35364;SDS011;21464;48.112;11.530;2023-06-22T04:23:49;10.70;;;7.97;;
35364;SDS011;21464;48.112;11.530;2023-06-22T04:26:15;12.07;;;8.23;;
35364;SDS011;21464;48.112;11.530;2023-06-22T04:28:41;10.75;;;8.13;;
35364;SDS011;21464;48.112;11.530;2023-06-22T04:31:07;10.60;;;7.43;;
35364;SDS011;21464;48.112;11.530;2023-06-22T04:33:34;9.30;;;7.07;;
35364;SDS011;21464;48.112;11.530;2023-06-22T04:36:00;26.65;;;18.70;;
35364;SDS011;21464;48.112;11.530;2023-06-22T04:38:27;18.80;;;12.27;;
35364;SDS011;21464;48.112;11.530;2023-06-22T04:40:53;11.77;;;8.68;;
35364;SDS011;21464;48.112;11.530;2023-06-22T04:43:20;11.38;;;9.23;;
35364;SDS011;21464;48.112;11.530;2023-06-22T04:45:46;16.27;;;12.27;;
35364;SDS011;21464;48.112;11.530;2023-06-22T04:48:18;10.57;;;8.25;;
35364;SDS011;21464;48.112;11.530;2023-06-22T04:50:44;10.95;;;9.07;;
35364;SDS011;21464;48.112;11.530;2023-06-22T04:53:10;12.63;;;10.98;;
35364;SDS011;21464;48.112;11.530;2023-06-22T04:55:39;10.80;;;9.18;;
35364;SDS011;21464;48.112;11.530;2023-06-22T04:58:07;9.75;;;8.75;;
35364;SDS011;21464;48.112;11.530;2023-06-22T05:00:33;12.32;;;8.50;;
35364;SDS011;21464;48.112;11.530;2023-06-22T05:03:02;11.50;;;8.70;;
35364;SDS011;21464;48.112;11.530;2023-06-22T05:05:29;10.80;;;8.55;;
35364;SDS011;21464;48.112;11.530;2023-06-22T05:07:56;14.13;;;8.70;;
35364;SDS011;21464;48.112;11.530;2023-06-22T05:10:25;13.05;;;8.20;;
35364;SDS011;21464;48.112;11.530;2023-06-22T05:12:52;12.85;;;8.20;;
35364;SDS011;21464;48.112;11.530;2023-06-22T05:15:18;10.57;;;7.82;;
35364;SDS011;21464;48.112;11.530;2023-06-22T05:17:52;11.38;;;7.50;;
35364;SDS011;21464;48.112;11.530;2023-06-22T05:20:18;13.80;;;8.45;;
35364;SDS011;21464;48.112;11.530;2023-06-22T05:22:45;12.45;;;8.40;;
35364;SDS011;21464;48.112;11.530;2023-06-22T05:25:12;11.25;;;8.18;;
35364;SDS011;21464;48.112;11.530;2023-06-22T05:27:39;16.25;;;10.02;;
35364;SDS011;21464;48.112;11.530;2023-06-22T05:30:06;13.48;;;9.70;;
35364;SDS011;21464;48.112;11.530;2023-06-22T05:32:33;15.32;;;10.73;;
35364;SDS011;21464;48.112;11.530;2023-06-22T05:34:59;16.40;;;12.38;;
35364;SDS011;21464;48.112;11.530;2023-06-22T05:37:25;17.17;;;14.38;;
35364;SDS011;21464;48.112;11.530;2023-06-22T05:39:52;21.20;;;13.40;;
35364;SDS011;21464;48.112;11.530;2023-06-22T05:42:20;18.83;;;13.63;;
35364;SDS011;21464;48.112;11.530;2023-06-22T05:44:46;17.10;;;12.02;;
35364;SDS011;21464;48.112;11.530;2023-06-22T05:47:13;16.38;;;11.13;;
35364;SDS011;21464;48.112;11.530;2023-06-22T05:49:39;20.88;;;14.35;;
35364;SDS011;21464;48.112;11.530;2023-06-22T05:52:05;22.58;;;15.80;;
35364;SDS011;21464;48.112;11.530;2023-06-22T05:54:32;16.52;;;13.43;;
35364;SDS011;21464;48.112;11.530;2023-06-22T05:56:58;18.45;;;12.05;;
35364;SDS011;21464;48.112;11.530;2023-06-22T05:59:24;13.27;;;10.00;;
35364;SDS011;21464;48.112;11.530;2023-06-22T06:01:50;19.45;;;14.40;;
35364;SDS011;21464;48.112;11.530;2023-06-22T06:04:17;10.35;;;8.30;;
35364;SDS011;21464;48.112;11.530;2023-06-22T06:06:44;11.10;;;8.52;;
35364;SDS011;21464;48.112;11.530;2023-06-22T06:09:10;13.75;;;10.73;;
35364;SDS011;21464;48.112;11.530;2023-06-22T06:11:37;16.38;;;10.18;;
35364;SDS011;21464;48.112;11.530;2023-06-22T06:14:04;12.40;;;9.70;;
35364;SDS011;21464;48.112;11.530;2023-06-22T06:16:30;12.80;;;9.23;;
35364;SDS011;21464;48.112;11.530;2023-06-22T06:18:56;13.90;;;9.32;;
35364;SDS011;21464;48.112;11.530;2023-06-22T06:21:24;14.32;;;8.85;;
35364;SDS011;21464;48.112;11.530;2023-06-22T06:23:50;9.90;;;8.05;;
35364;SDS011;21464;48.112;11.530;2023-06-22T06:26:16;15.55;;;9.25;;
35364;SDS011;21464;48.112;11.530;2023-06-22T06:28:43;11.98;;;8.48;;
35364;SDS011;21464;48.112;11.530;2023-06-22T06:31:09;11.07;;;8.15;;
35364;SDS011;21464;48.112;11.530;2023-06-22T06:33:37;14.60;;;9.02;;
35364;SDS011;21464;48.112;11.530;2023-06-22T06:36:04;10.73;;;8.70;;
35364;SDS011;21464;48.112;11.530;2023-06-22T06:38:30;12.95;;;8.43;;
35364;SDS011;21464;48.112;11.530;2023-06-22T06:40:57;14.95;;;9.02;;
35364;SDS011;21464;48.112;11.530;2023-06-22T06:43:24;12.65;;;8.60;;
35364;SDS011;21464;48.112;11.530;2023-06-22T06:45:50;10.00;;;8.50;;
35364;SDS011;21464;48.112;11.530;2023-06-22T06:48:17;11.48;;;8.95;;
35364;SDS011;21464;48.112;11.530;2023-06-22T06:50:43;11.65;;;8.63;;
35364;SDS011;21464;48.112;11.530;2023-06-22T06:53:12;14.80;;;8.20;;
35364;SDS011;21464;48.112;11.530;2023-06-22T06:55:38;14.52;;;8.90;;
35364;SDS011;21464;48.112;11.530;2023-06-22T06:58:05;11.90;;;9.60;;
35364;SDS011;21464;48.112;11.530;2023-06-22T07:00:33;12.07;;;8.73;;
35364;SDS011;21464;48.112;11.530;2023-06-22T07:03:01;14.23;;;8.82;;
35364;SDS011;21464;48.112;11.530;2023-06-22T07:05:27;14.80;;;8.73;;
35364;SDS011;21464;48.112;11.530;2023-06-22T07:07:54;13.02;;;8.55;;
35364;SDS011;21464;48.112;11.530;2023-06-22T07:10:20;11.35;;;8.57;;
35364;SDS011;21464;48.112;11.530;2023-06-22T07:12:46;10.93;;;8.80;;
35364;SDS011;21464;48.112;11.530;2023-06-22T07:15:13;16.08;;;13.10;;
35364;SDS011;21464;48.112;11.530;2023-06-22T07:17:39;12.98;;;9.35;;
35364;SDS011;21464;48.112;11.530;2023-06-22T07:20:08;15.00;;;10.70;;
35364;SDS011;21464;48.112;11.530;2023-06-22T07:22:39;11.63;;;9.27;;
35364;SDS011;21464;48.112;11.530;2023-06-22T07:25:06;18.45;;;9.65;;
35364;SDS011;21464;48.112;11.530;2023-06-22T07:27:38;10.95;;;7.65;;
35364;SDS011;21464;48.112;11.530;2023-06-22T07:30:11;11.05;;;8.48;;
35364;SDS011;21464;48.112;11.530;2023-06-22T07:32:38;12.55;;;8.15;;
35364;SDS011;21464;48.112;11.530;2023-06-22T07:35:04;14.27;;;8.43;;
35364;SDS011;21464;48.112;11.530;2023-06-22T07:37:31;12.27;;;8.48;;
35364;SDS011;21464;48.112;11.530;2023-06-22T07:39:59;15.90;;;9.60;;
35364;SDS011;21464;48.112;11.530;2023-06-22T07:42:25;15.13;;;8.77;;
35364;SDS011;21464;48.112;11.530;2023-06-22T07:44:52;16.33;;;8.15;;
35364;SDS011;21464;48.112;11.530;2023-06-22T07:47:19;10.13;;;7.72;;
35364;SDS011;21464;48.112;11.530;2023-06-22T07:49:45;12.77;;;8.10;;
35364;SDS011;21464;48.112;11.530;2023-06-22T07:52:12;11.40;;;8.27;;
35364;SDS011;21464;48.112;11.530;2023-06-22T07:54:38;10.30;;;8.38;;
35364;SDS011;21464;48.112;11.530;2023-06-22T07:57:05;13.40;;;8.35;;
35364;SDS011;21464;48.112;11.530;2023-06-22T07:59:31;12.30;;;8.18;;
35364;SDS011;21464;48.112;11.530;2023-06-22T08:01:57;15.77;;;8.13;;
35364;SDS011;21464;48.112;11.530;2023-06-22T08:04:23;13.55;;;8.23;;
35364;SDS011;21464;48.112;11.530;2023-06-22T08:06:50;12.18;;;8.27;;
35364;SDS011;21464;48.112;11.530;2023-06-22T08:09:16;14.77;;;8.45;;
35364;SDS011;21464;48.112;11.530;2023-06-22T08:11:42;14.35;;;8.35;;
35364;SDS011;21464;48.112;11.530;2023-06-22T08:14:08;13.25;;;8.40;;
35364;SDS011;21464;48.112;11.530;2023-06-22T08:16:34;15.50;;;7.88;;
35364;SDS011;21464;48.112;11.530;2023-06-22T08:19:01;15.48;;;8.07;;
35364;SDS011;21464;48.112;11.530;2023-06-22T08:21:27;17.02;;;7.90;;
35364;SDS011;21464;48.112;11.530;2023-06-22T08:23:54;14.20;;;7.72;;
35364;SDS011;21464;48.112;11.530;2023-06-22T08:26:20;14.02;;;8.40;;
35364;SDS011;21464;48.112;11.530;2023-06-22T08:28:47;12.52;;;7.90;;
35364;SDS011;21464;48.112;11.530;2023-06-22T08:31:13;10.60;;;9.10;;
35364;SDS011;21464;48.112;11.530;2023-06-22T08:33:40;12.27;;;8.45;;
35364;SDS011;21464;48.112;11.530;2023-06-22T08:36:06;11.88;;;7.90;;
35364;SDS011;21464;48.112;11.530;2023-06-22T08:38:34;21.30;;;8.55;;
35364;SDS011;21464;48.112;11.530;2023-06-22T08:41:00;15.60;;;10.43;;
35364;SDS011;21464;48.112;11.530;2023-06-22T08:43:26;12.45;;;8.35;;
35364;SDS011;21464;48.112;11.530;2023-06-22T08:45:53;15.60;;;10.43;;
35364;SDS011;21464;48.112;11.530;2023-06-22T08:48:19;13.43;;;8.98;;
35364;SDS011;21464;48.112;11.530;2023-06-22T08:50:45;14.18;;;9.77;;
35364;SDS011;21464;48.112;11.530;2023-06-22T08:53:11;15.75;;;10.02;;
35364;SDS011;21464;48.112;11.530;2023-06-22T08:55:38;11.43;;;8.55;;
35364;SDS011;21464;48.112;11.530;2023-06-22T08:58:04;15.80;;;8.60;;
35364;SDS011;21464;48.112;11.530;2023-06-22T09:00:30;13.75;;;9.63;;
35364;SDS011;21464;48.112;11.530;2023-06-22T09:02:58;18.05;;;8.82;;
35364;SDS011;21464;48.112;11.530;2023-06-22T09:05:24;9.98;;;7.57;;
35364;SDS011;21464;48.112;11.530;2023-06-22T09:07:53;13.82;;;8.98;;
35364;SDS011;21464;48.112;11.530;2023-06-22T09:10:22;12.75;;;8.45;;
35364;SDS011;21464;48.112;11.530;2023-06-22T09:12:48;13.80;;;9.20;;
35364;SDS011;21464;48.112;11.530;2023-06-22T09:15:14;17.10;;;8.70;;
35364;SDS011;21464;48.112;11.530;2023-06-22T09:17:41;13.02;;;8.10;;
35364;SDS011;21464;48.112;11.530;2023-06-22T09:20:07;16.58;;;7.90;;
35364;SDS011;21464;48.112;11.530;2023-06-22T09:22:36;12.27;;;8.60;;
35364;SDS011;21464;48.112;11.530;2023-06-22T09:25:03;10.55;;;7.68;;
35364;SDS011;21464;48.112;11.530;2023-06-22T09:27:29;14.18;;;8.30;;
35364;SDS011;21464;48.112;11.530;2023-06-22T09:29:55;13.50;;;8.75;;
35364;SDS011;21464;48.112;11.530;2023-06-22T09:32:24;10.88;;;7.82;;
35364;SDS011;21464;48.112;11.530;2023-06-22T09:34:51;15.48;;;9.35;;
35364;SDS011;21464;48.112;11.530;2023-06-22T09:37:18;12.95;;;8.50;;
35364;SDS011;21464;48.112;11.530;2023-06-22T09:39:45;12.68;;;7.90;;
35364;SDS011;21464;48.112;11.530;2023-06-22T09:42:11;12.77;;;8.73;;
35364;SDS011;21464;48.112;11.530;2023-06-22T09:44:39;10.95;;;8.70;;
35364;SDS011;21464;48.112;11.530;2023-06-22T09:47:05;14.38;;;8.48;;
35364;SDS011;21464;48.112;11.530;2023-06-22T09:49:32;14.48;;;8.57;;
35364;SDS011;21464;48.112;11.530;2023-06-22T09:51:58;18.80;;;8.77;;
35364;SDS011;21464;48.112;11.530;2023-06-22T09:54:24;12.95;;;8.52;;
35364;SDS011;21464;48.112;11.530;2023-06-22T09:56:51;14.70;;;8.15;;
35364;SDS011;21464;48.112;11.530;2023-06-22T09:59:17;11.93;;;7.93;;
35364;SDS011;21464;48.112;11.530;2023-06-22T10:01:43;13.40;;;7.65;;
35364;SDS011;21464;48.112;11.530;2023-06-22T10:04:10;15.82;;;8.50;;
35364;SDS011;21464;48.112;11.530;2023-06-22T10:06:36;13.27;;;8.40;;
35364;SDS011;21464;48.112;11.530;2023-06-22T10:09:09;11.70;;;8.43;;
35364;SDS011;21464;48.112;11.530;2023-06-22T10:11:36;13.73;;;9.07;;
35364;SDS011;21464;48.112;11.530;2023-06-22T10:14:02;12.57;;;9.38;;
35364;SDS011;21464;48.112;11.530;2023-06-22T10:16:30;18.02;;;9.38;;
35364;SDS011;21464;48.112;11.530;2023-06-22T10:18:57;12.00;;;8.50;;
35364;SDS011;21464;48.112;11.530;2023-06-22T10:21:23;15.98;;;8.32;;
35364;SDS011;21464;48.112;11.530;2023-06-22T10:23:50;13.18;;;8.20;;
35364;SDS011;21464;48.112;11.530;2023-06-22T10:26:16;12.98;;;8.05;;
35364;SDS011;21464;48.112;11.530;2023-06-22T10:28:42;12.02;;;8.07;;
35364;SDS011;21464;48.112;11.530;2023-06-22T10:31:08;14.23;;;9.45;;
35364;SDS011;21464;48.112;11.530;2023-06-22T10:33:35;13.52;;;8.20;;
35364;SDS011;21464;48.112;11.530;2023-06-22T10:36:01;15.70;;;8.02;;
35364;SDS011;21464;48.112;11.530;2023-06-22T10:38:27;12.70;;;8.05;;
35364;SDS011;21464;48.112;11.530;2023-06-22T10:40:53;13.80;;;8.35;;
35364;SDS011;21464;48.112;11.530;2023-06-22T10:43:20;12.05;;;8.02;;
35364;SDS011;21464;48.112;11.530;2023-06-22T10:45:46;11.90;;;8.63;;
35364;SDS011;21464;48.112;11.530;2023-06-22T10:48:12;12.98;;;8.02;;
35364;SDS011;21464;48.112;11.530;2023-06-22T10:50:38;15.55;;;8.52;;
35364;SDS011;21464;48.112;11.530;2023-06-22T10:53:05;15.65;;;9.07;;
35364;SDS011;21464;48.112;11.530;2023-06-22T10:55:31;16.85;;;8.65;;
35364;SDS011;21464;48.112;11.530;2023-06-22T10:57:57;14.05;;;9.40;;
35364;SDS011;21464;48.112;11.530;2023-06-22T11:00:24;12.50;;;8.55;;
35364;SDS011;21464;48.112;11.530;2023-06-22T11:02:50;13.15;;;10.07;;
35364;SDS011;21464;48.112;11.530;2023-06-22T11:05:16;17.35;;;10.75;;
35364;SDS011;21464;48.112;11.530;2023-06-22T11:07:42;11.43;;;7.97;;
35364;SDS011;21464;48.112;11.530;2023-06-22T11:10:10;14.68;;;8.00;;
35364;SDS011;21464;48.112;11.530;2023-06-22T11:12:36;16.08;;;9.07;;
35364;SDS011;21464;48.112;11.530;2023-06-22T11:15:03;15.25;;;8.40;;
35364;SDS011;21464;48.112;11.530;2023-06-22T11:17:30;16.58;;;8.35;;
35364;SDS011;21464;48.112;11.530;2023-06-22T11:19:56;12.98;;;8.38;;
35364;SDS011;21464;48.112;11.530;2023-06-22T11:22:22;13.50;;;8.60;;
35364;SDS011;21464;48.112;11.530;2023-06-22T11:24:48;10.73;;;8.55;;
35364;SDS011;21464;48.112;11.530;2023-06-22T11:27:15;11.38;;;8.07;;
35364;SDS011;21464;48.112;11.530;2023-06-22T11:29:41;14.02;;;9.90;;
35364;SDS011;21464;48.112;11.530;2023-06-22T11:32:07;14.27;;;8.70;;
35364;SDS011;21464;48.112;11.530;2023-06-22T11:34:34;10.95;;;7.57;;
35364;SDS011;21464;48.112;11.530;2023-06-22T11:37:00;12.45;;;8.43;;
35364;SDS011;21464;48.112;11.530;2023-06-22T11:39:27;12.38;;;7.80;;
35364;SDS011;21464;48.112;11.530;2023-06-22T11:41:53;13.80;;;8.85;;
35364;SDS011;21464;48.112;11.530;2023-06-22T11:44:19;13.30;;;8.38;;
35364;SDS011;21464;48.112;11.530;2023-06-22T11:46:45;14.00;;;8.27;;
35364;SDS011;21464;48.112;11.530;2023-06-22T11:49:12;11.43;;;8.30;;
35364;SDS011;21464;48.112;11.530;2023-06-22T11:51:38;12.43;;;7.88;;
35364;SDS011;21464;48.112;11.530;2023-06-22T11:54:04;14.30;;;9.88;;
35364;SDS011;21464;48.112;11.530;2023-06-22T11:56:31;13.63;;;9.05;;
35364;SDS011;21464;48.112;11.530;2023-06-22T11:58:58;12.75;;;8.82;;
35364;SDS011;21464;48.112;11.530;2023-06-22T12:01:24;9.68;;;7.15;;
35364;SDS011;21464;48.112;11.530;2023-06-22T12:03:50;14.10;;;8.77;;
35364;SDS011;21464;48.112;11.530;2023-06-22T12:06:17;10.75;;;8.38;;
35364;SDS011;21464;48.112;11.530;2023-06-22T12:08:43;13.50;;;8.82;;
35364;SDS011;21464;48.112;11.530;2023-06-22T12:11:09;19.95;;;9.70;;
35364;SDS011;21464;48.112;11.530;2023-06-22T12:13:36;16.38;;;10.23;;
35364;SDS011;21464;48.112;11.530;2023-06-22T12:16:02;16.27;;;7.95;;
35364;SDS011;21464;48.112;11.530;2023-06-22T12:18:28;27.25;;;16.95;;
35364;SDS011;21464;48.112;11.530;2023-06-22T12:20:54;14.30;;;8.93;;
35364;SDS011;21464;48.112;11.530;2023-06-22T12:23:20;18.60;;;8.65;;
35364;SDS011;21464;48.112;11.530;2023-06-22T12:25:47;19.60;;;11.10;;
35364;SDS011;21464;48.112;11.530;2023-06-22T12:28:13;14.07;;;8.43;;
35364;SDS011;21464;48.112;11.530;2023-06-22T12:30:39;14.40;;;8.25;;
35364;SDS011;21464;48.112;11.530;2023-06-22T12:33:05;15.02;;;8.38;;
35364;SDS011;21464;48.112;11.530;2023-06-22T12:35:32;12.95;;;7.90;;
35364;SDS011;21464;48.112;11.530;2023-06-22T12:37:58;13.02;;;8.00;;
35364;SDS011;21464;48.112;11.530;2023-06-22T12:40:25;12.27;;;8.75;;
35364;SDS011;21464;48.112;11.530;2023-06-22T12:42:52;10.77;;;7.68;;
35364;SDS011;21464;48.112;11.530;2023-06-22T12:45:18;13.18;;;7.45;;
35364;SDS011;21464;48.112;11.530;2023-06-22T12:47:47;14.68;;;7.80;;
35364;SDS011;21464;48.112;11.530;2023-06-22T12:50:15;18.67;;;9.27;;
35364;SDS011;21464;48.112;11.530;2023-06-22T12:52:41;15.63;;;10.32;;
35364;SDS011;21464;48.112;11.530;2023-06-22T12:55:08;13.98;;;8.57;;
35364;SDS011;21464;48.112;11.530;2023-06-22T12:57:34;16.42;;;8.70;;
35364;SDS011;21464;48.112;11.530;2023-06-22T13:00:00;16.80;;;9.90;;
35364;SDS011;21464;48.112;11.530;2023-06-22T13:02:27;17.95;;;8.35;;
35364;SDS011;21464;48.112;11.530;2023-06-22T13:04:54;12.57;;;7.45;;
35364;SDS011;21464;48.112;11.530;2023-06-22T13:07:20;12.15;;;7.38;;
35364;SDS011;21464;48.112;11.530;2023-06-22T13:09:47;18.33;;;7.43;;
35364;SDS011;21464;48.112;11.530;2023-06-22T13:12:17;9.85;;;7.30;;
35364;SDS011;21464;48.112;11.530;2023-06-22T13:14:44;11.52;;;7.38;;
35364;SDS011;21464;48.112;11.530;2023-06-22T13:17:12;13.23;;;7.15;;
35364;SDS011;21464;48.112;11.530;2023-06-22T13:19:39;12.23;;;7.30;;
35364;SDS011;21464;48.112;11.530;2023-06-22T13:22:09;15.68;;;6.80;;
35364;SDS011;21464;48.112;11.530;2023-06-22T13:25:06;10.90;;;6.03;;
35364;SDS011;21464;48.112;11.530;2023-06-22T13:27:32;12.23;;;6.57;;
35364;SDS011;21464;48.112;11.530;2023-06-22T13:29:58;9.68;;;6.68;;
35364;SDS011;21464;48.112;11.530;2023-06-22T13:32:25;11.27;;;7.18;;
35364;SDS011;21464;48.112;11.530;2023-06-22T13:34:52;12.93;;;7.90;;
35364;SDS011;21464;48.112;11.530;2023-06-22T13:37:18;11.38;;;6.90;;
35364;SDS011;21464;48.112;11.530;2023-06-22T13:39:45;12.82;;;7.40;;
35364;SDS011;21464;48.112;11.530;2023-06-22T13:42:11;12.55;;;7.05;;
35364;SDS011;21464;48.112;11.530;2023-06-22T13:44:37;9.45;;;6.78;;
35364;SDS011;21464;48.112;11.530;2023-06-22T13:47:03;11.05;;;6.40;;
35364;SDS011;21464;48.112;11.530;2023-06-22T13:49:30;11.25;;;6.93;;
35364;SDS011;21464;48.112;11.530;2023-06-22T13:51:57;14.63;;;6.57;;
35364;SDS011;21464;48.112;11.530;2023-06-22T13:54:23;12.57;;;7.20;;
35364;SDS011;21464;48.112;11.530;2023-06-22T13:56:49;11.82;;;6.35;;
35364;SDS011;21464;48.112;11.530;2023-06-22T13:59:15;11.20;;;6.63;;
35364;SDS011;21464;48.112;11.530;2023-06-22T14:01:42;12.23;;;6.25;;
35364;SDS011;21464;48.112;11.530;2023-06-22T14:04:09;10.88;;;6.60;;
35364;SDS011;21464;48.112;11.530;2023-06-22T14:06:36;12.27;;;6.30;;
35364;SDS011;21464;48.112;11.530;2023-06-22T14:09:02;12.23;;;6.10;;
35364;SDS011;21464;48.112;11.530;2023-06-22T14:11:28;14.07;;;6.75;;
35364;SDS011;21464;48.112;11.530;2023-06-22T14:13:55;9.77;;;6.35;;
35364;SDS011;21464;48.112;11.530;2023-06-22T14:16:24;14.23;;;6.18;;
35364;SDS011;21464;48.112;11.530;2023-06-22T14:18:50;10.68;;;6.28;;
35364;SDS011;21464;48.112;11.530;2023-06-22T14:21:16;13.50;;;6.82;;
35364;SDS011;21464;48.112;11.530;2023-06-22T14:23:44;15.05;;;7.90;;
35364;SDS011;21464;48.112;11.530;2023-06-22T14:26:15;12.38;;;7.72;;